createdAt,value
2018-06-27T00:00:34.674Z,18.8
2018-06-27T00:01:35.349Z,18.8
2018-06-27T00:02:36.021Z,18.8
2018-06-27T00:03:36.693Z,18.8
2018-06-27T00:04:37.416Z,18.8
2018-06-27T00:05:38.089Z,18.8
2018-06-27T00:06:38.761Z,18.7
2018-06-27T00:07:39.433Z,18.7
2018-06-27T00:08:40.107Z,18.6
2018-06-27T00:09:40.779Z,18.6
2018-06-27T00:10:41.450Z,18.5
2018-06-27T00:11:42.124Z,18.6
2018-06-27T00:12:42.797Z,18.6
2018-06-27T00:13:43.468Z,18.5
2018-06-27T00:14:44.139Z,18.5
2018-06-27T00:15:44.811Z,18.5
2018-06-27T00:16:45.486Z,18.4
2018-06-27T00:17:46.157Z,18.4
2018-06-27T00:18:46.828Z,18.4
2018-06-27T00:19:47.499Z,18.5
2018-06-27T00:20:48.172Z,18.4
2018-06-27T00:21:48.844Z,18.4
2018-06-27T00:22:49.515Z,18.4
2018-06-27T00:23:50.187Z,18.4
2018-06-27T00:24:50.862Z,18.4
2018-06-27T00:25:51.535Z,18.4
2018-06-27T00:26:52.209Z,18.4
2018-06-27T00:27:52.885Z,18.4
2018-06-27T00:28:53.551Z,18.4
2018-06-27T00:29:54.223Z,18.4
2018-06-27T00:30:54.894Z,18.4
2018-06-27T00:31:55.567Z,18.4
2018-06-27T00:32:56.242Z,18.3
2018-06-27T00:33:56.964Z,18.3
2018-06-27T00:34:57.585Z,18.3
2018-06-27T00:35:58.257Z,18.3
2018-06-27T00:36:58.928Z,18.3
2018-06-27T00:37:59.600Z,18.3
2018-06-27T00:39:00.271Z,18.3
2018-06-27T00:40:00.945Z,18.3
2018-06-27T00:41:01.618Z,18.3
2018-06-27T00:42:02.291Z,18.3
2018-06-27T00:43:02.964Z,18.2
2018-06-27T00:44:03.637Z,18.3
2018-06-27T00:45:04.308Z,18.3
2018-06-27T00:46:04.982Z,18.3
2018-06-27T00:47:05.655Z,18.3
2018-06-27T00:48:06.327Z,18.2
2018-06-27T00:49:07.042Z,18.2
2018-06-27T00:50:07.715Z,18.2
2018-06-27T00:51:08.385Z,18.2
2018-06-27T00:52:09.058Z,18.1
2018-06-27T00:53:09.727Z,18.1
2018-06-27T00:54:10.405Z,18.0
2018-06-27T00:55:11.113Z,18.0
2018-06-27T00:56:11.826Z,18.0
2018-06-27T00:57:12.497Z,18.0
2018-06-27T00:58:13.169Z,17.9
2018-06-27T00:59:13.841Z,17.9
2018-06-27T01:00:14.512Z,17.9
2018-06-27T01:01:15.183Z,17.8
2018-06-27T01:02:15.854Z,17.8
2018-06-27T01:03:16.528Z,17.8
2018-06-27T01:04:17.200Z,17.8
2018-06-27T01:05:17.872Z,17.8
2018-06-27T01:06:18.545Z,17.8
2018-06-27T01:07:19.218Z,17.7
2018-06-27T01:08:19.888Z,17.7
2018-06-27T01:09:20.561Z,17.8
2018-06-27T01:10:21.234Z,17.8
2018-06-27T01:11:21.908Z,17.7
2018-06-27T01:12:22.580Z,17.7
2018-06-27T01:13:23.251Z,17.6
2018-06-27T01:14:23.923Z,17.6
2018-06-27T01:15:24.594Z,17.6
2018-06-27T01:16:25.266Z,17.6
2018-06-27T01:17:25.938Z,17.6
2018-06-27T01:18:26.614Z,17.5
2018-06-27T01:19:27.325Z,17.6
2018-06-27T01:20:27.995Z,17.6
2018-06-27T01:21:28.668Z,17.5
2018-06-27T01:22:29.340Z,17.6
2018-06-27T01:23:30.013Z,17.4
2018-06-27T01:24:30.682Z,17.4
2018-06-27T01:25:31.355Z,17.3
2018-06-27T01:26:32.028Z,17.4
2018-06-27T01:27:32.700Z,17.3
2018-06-27T01:28:33.371Z,17.3
2018-06-27T01:29:34.044Z,17.3
2018-06-27T01:30:34.714Z,17.3
2018-06-27T01:31:35.384Z,17.3
2018-06-27T01:32:36.056Z,17.2
2018-06-27T01:33:36.728Z,17.2
2018-06-27T01:34:37.402Z,17.2
2018-06-27T01:35:38.121Z,17.2
2018-06-27T01:36:38.793Z,17.1
2018-06-27T01:37:39.464Z,17.2
2018-06-27T01:38:40.139Z,17.2
2018-06-27T01:39:40.850Z,17.1
2018-06-27T01:40:41.520Z,17.1
2018-06-27T01:41:42.191Z,17.1
2018-06-27T01:42:42.901Z,17.1
2018-06-27T01:43:43.573Z,17.0
2018-06-27T01:44:44.244Z,17.0
2018-06-27T01:45:45.011Z,17.0
2018-06-27T01:46:45.678Z,16.9
2018-06-27T01:47:46.349Z,17.0
2018-06-27T01:48:47.022Z,16.9
2018-06-27T01:49:47.693Z,16.9
2018-06-27T01:50:48.415Z,16.9
2018-06-27T01:51:49.085Z,16.8
2018-06-27T01:52:49.756Z,16.8
2018-06-27T01:53:50.430Z,16.8
2018-06-27T01:54:51.141Z,16.7
2018-06-27T01:55:51.814Z,16.7
2018-06-27T01:56:52.483Z,16.7
2018-06-27T01:57:53.153Z,16.7
2018-06-27T01:58:53.825Z,16.6
2018-06-27T01:59:54.495Z,16.7
2018-06-27T02:00:55.167Z,16.6
2018-06-27T02:01:55.840Z,16.6
2018-06-27T02:02:56.512Z,16.6
2018-06-27T02:03:57.182Z,16.6
2018-06-27T02:04:57.852Z,16.6
2018-06-27T02:05:58.583Z,16.6
2018-06-27T02:06:59.245Z,16.5
2018-06-27T02:07:59.917Z,16.5
2018-06-27T02:09:00.632Z,16.5
2018-06-27T02:10:01.303Z,16.5
2018-06-27T02:11:01.975Z,16.5
2018-06-27T02:12:02.646Z,16.5
2018-06-27T02:13:03.316Z,16.6
2018-06-27T02:14:03.984Z,16.5
2018-06-27T02:15:04.656Z,16.4
2018-06-27T02:16:05.327Z,16.4
2018-06-27T02:17:06.038Z,16.5
2018-06-27T02:18:06.712Z,16.5
2018-06-27T02:19:07.383Z,16.4
2018-06-27T02:20:08.054Z,16.3
2018-06-27T02:21:08.726Z,16.3
2018-06-27T02:22:09.396Z,16.3
2018-06-27T02:23:10.068Z,16.3
2018-06-27T02:24:10.743Z,16.3
2018-06-27T02:25:11.452Z,16.3
2018-06-27T02:26:12.124Z,16.4
2018-06-27T02:27:12.795Z,16.3
2018-06-27T02:28:13.466Z,16.4
2018-06-27T02:29:14.137Z,16.4
2018-06-27T02:30:14.811Z,16.3
2018-06-27T02:31:15.478Z,16.3
2018-06-27T02:32:16.150Z,16.3
2018-06-27T02:33:16.822Z,16.3
2018-06-27T02:34:17.493Z,16.2
2018-06-27T02:35:18.165Z,16.2
2018-06-27T02:36:18.835Z,16.3
2018-06-27T02:37:19.507Z,16.3
2018-06-27T02:38:20.178Z,16.3
2018-06-27T02:39:20.849Z,16.2
2018-06-27T02:40:21.522Z,16.2
2018-06-27T02:41:22.194Z,16.2
2018-06-27T02:42:22.866Z,16.2
2018-06-27T02:43:23.540Z,16.1
2018-06-27T02:44:24.210Z,16.2
2018-06-27T02:45:24.958Z,16.2
2018-06-27T02:46:25.563Z,16.1
2018-06-27T02:47:26.234Z,16.1
2018-06-27T02:48:26.907Z,16.1
2018-06-27T02:49:27.579Z,16.1
2018-06-27T02:50:28.250Z,16.1
2018-06-27T02:51:28.924Z,16.1
2018-06-27T02:52:29.595Z,16.1
2018-06-27T02:53:30.272Z,16.0
2018-06-27T02:54:30.939Z,16.1
2018-06-27T02:55:31.611Z,16.0
2018-06-27T02:56:32.284Z,16.0
2018-06-27T02:57:32.995Z,16.0
2018-06-27T02:58:33.668Z,16.0
2018-06-27T02:59:34.340Z,15.9
2018-06-27T03:00:35.013Z,16.0
2018-06-27T03:01:35.687Z,16.0
2018-06-27T03:02:36.439Z,16.0
2018-06-27T03:03:37.071Z,16.0
2018-06-27T03:04:37.749Z,15.9
2018-06-27T03:05:38.418Z,15.9
2018-06-27T03:06:39.131Z,15.9
2018-06-27T03:07:39.804Z,16.0
2018-06-27T03:08:40.480Z,15.9
2018-06-27T03:09:41.190Z,16.0
2018-06-27T03:10:41.864Z,15.9
2018-06-27T03:11:42.539Z,15.9
2018-06-27T03:12:43.212Z,15.9
2018-06-27T03:13:43.885Z,15.9
2018-06-27T03:14:44.556Z,15.9
2018-06-27T03:15:45.230Z,15.9
2018-06-27T03:16:45.904Z,15.9
2018-06-27T03:17:46.577Z,16.0
2018-06-27T03:18:47.254Z,15.9
2018-06-27T03:19:47.965Z,15.9
2018-06-27T03:20:48.640Z,15.9
2018-06-27T03:21:49.313Z,15.9
2018-06-27T03:22:49.986Z,15.9
2018-06-27T03:23:50.660Z,15.8
2018-06-27T03:24:51.334Z,15.9
2018-06-27T03:25:52.008Z,15.9
2018-06-27T03:26:52.683Z,16.0
2018-06-27T03:27:53.356Z,15.9
2018-06-27T03:28:54.031Z,16.0
2018-06-27T03:29:54.704Z,16.1
2018-06-27T03:30:55.379Z,16.0
2018-06-27T03:31:56.093Z,16.0
2018-06-27T03:32:56.767Z,16.0
2018-06-27T03:33:57.441Z,16.0
2018-06-27T03:34:58.114Z,16.0
2018-06-27T03:35:58.788Z,16.0
2018-06-27T03:36:59.463Z,16.0
2018-06-27T03:38:00.136Z,15.9
2018-06-27T03:39:00.810Z,15.9
2018-06-27T03:40:01.484Z,15.9
2018-06-27T03:41:02.213Z,15.9
2018-06-27T03:42:02.886Z,15.9
2018-06-27T03:43:03.564Z,15.9
2018-06-27T03:44:04.274Z,15.9
2018-06-27T03:45:04.950Z,15.9
2018-06-27T03:46:05.624Z,15.9
2018-06-27T03:47:06.296Z,15.9
2018-06-27T03:48:06.971Z,16.0
2018-06-27T03:49:07.644Z,16.0
2018-06-27T03:50:08.317Z,15.9
2018-06-27T03:51:09.034Z,16.0
2018-06-27T03:52:09.757Z,16.0
2018-06-27T03:53:10.430Z,15.9
2018-06-27T03:54:11.104Z,15.9
2018-06-27T03:55:11.780Z,16.0
2018-06-27T03:56:12.461Z,16.0
2018-06-27T03:57:13.170Z,16.0
2018-06-27T03:58:13.848Z,15.9
2018-06-27T03:59:14.521Z,15.9
2018-06-27T04:00:15.197Z,15.8
2018-06-27T04:01:15.871Z,15.9
2018-06-27T04:02:16.545Z,15.9
2018-06-27T04:03:17.219Z,15.9
2018-06-27T04:04:17.896Z,15.9
2018-06-27T04:05:18.571Z,15.8
2018-06-27T04:06:19.247Z,15.8
2018-06-27T04:07:19.923Z,15.9
2018-06-27T04:08:20.639Z,15.8
2018-06-27T04:09:21.312Z,15.9
2018-06-27T04:10:21.988Z,15.8
2018-06-27T04:11:22.666Z,15.9
2018-06-27T04:12:23.386Z,15.9
2018-06-27T04:13:24.288Z,15.9
2018-06-27T04:14:24.790Z,15.9
2018-06-27T04:15:25.411Z,15.9
2018-06-27T04:16:26.088Z,15.8
2018-06-27T04:17:26.805Z,15.9
2018-06-27T04:18:27.480Z,15.8
2018-06-27T04:19:28.155Z,15.8
2018-06-27T04:20:28.830Z,15.9
2018-06-27T04:21:29.507Z,15.9
2018-06-27T04:22:30.182Z,15.8
2018-06-27T04:23:30.856Z,15.8
2018-06-27T04:24:31.530Z,15.8
2018-06-27T04:25:32.206Z,15.9
2018-06-27T04:26:32.880Z,15.9
2018-06-27T04:27:33.557Z,15.8
2018-06-27T04:28:34.231Z,15.9
2018-06-27T04:29:34.907Z,15.8
2018-06-27T04:30:35.581Z,15.8
2018-06-27T04:31:36.258Z,15.8
2018-06-27T04:32:36.933Z,15.9
2018-06-27T04:33:37.608Z,15.8
2018-06-27T04:34:38.284Z,15.8
2018-06-27T04:35:39.001Z,15.9
2018-06-27T04:36:39.676Z,16.0
2018-06-27T04:37:40.390Z,15.9
2018-06-27T04:38:41.066Z,15.9
2018-06-27T04:39:41.740Z,15.9
2018-06-27T04:40:42.417Z,16.0
2018-06-27T04:41:43.130Z,15.9
2018-06-27T04:42:43.805Z,16.0
2018-06-27T04:43:44.484Z,16.1
2018-06-27T04:44:45.159Z,16.1
2018-06-27T04:45:45.836Z,16.0
2018-06-27T04:46:46.505Z,16.1
2018-06-27T04:47:47.182Z,16.0
2018-06-27T04:48:47.856Z,16.1
2018-06-27T04:49:48.532Z,16.1
2018-06-27T04:50:49.206Z,16.1
2018-06-27T04:51:49.882Z,16.0
2018-06-27T04:52:50.557Z,16.1
2018-06-27T04:53:51.233Z,16.1
2018-06-27T04:54:51.926Z,16.1
2018-06-27T04:55:52.581Z,16.1
2018-06-27T04:56:53.258Z,16.1
2018-06-27T04:57:53.936Z,16.1
2018-06-27T04:58:54.608Z,16.2
2018-06-27T04:59:55.292Z,16.1
2018-06-27T05:00:55.999Z,16.1
2018-06-27T05:01:56.675Z,16.2
2018-06-27T05:02:57.351Z,16.2
2018-06-27T05:03:58.024Z,16.1
2018-06-27T05:04:58.699Z,16.2
2018-06-27T05:05:59.377Z,16.2
2018-06-27T05:07:00.053Z,16.2
2018-06-27T05:08:00.728Z,16.2
2018-06-27T05:09:01.404Z,16.1
2018-06-27T05:10:02.080Z,16.3
2018-06-27T05:11:02.755Z,16.2
2018-06-27T05:12:03.432Z,16.2
2018-06-27T05:13:04.107Z,16.2
2018-06-27T05:14:04.783Z,16.2
2018-06-27T05:15:05.457Z,16.2
2018-06-27T05:16:06.133Z,16.2
2018-06-27T05:17:06.807Z,16.2
2018-06-27T05:18:07.484Z,16.3
2018-06-27T05:19:08.158Z,16.3
2018-06-27T05:20:08.835Z,16.4
2018-06-27T05:21:09.516Z,16.4
2018-06-27T05:22:10.225Z,16.4
2018-06-27T05:23:10.902Z,16.5
2018-06-27T05:24:11.617Z,16.4
2018-06-27T05:25:12.293Z,16.5
2018-06-27T05:26:12.968Z,16.4
2018-06-27T05:27:13.650Z,16.5
2018-06-27T05:28:14.320Z,16.6
2018-06-27T05:29:14.996Z,16.5
2018-06-27T05:30:15.710Z,16.6
2018-06-27T05:31:16.385Z,16.6
2018-06-27T05:32:17.063Z,16.6
2018-06-27T05:33:17.788Z,16.7
2018-06-27T05:34:18.462Z,16.7
2018-06-27T05:35:19.175Z,16.7
2018-06-27T05:36:19.856Z,16.7
2018-06-27T05:37:20.533Z,16.7
2018-06-27T05:38:21.207Z,16.8
2018-06-27T05:39:21.881Z,16.7
2018-06-27T05:40:22.559Z,16.8
2018-06-27T05:41:23.233Z,16.9
2018-06-27T05:42:23.909Z,16.9
2018-06-27T05:43:24.585Z,16.9
2018-06-27T05:44:25.265Z,16.9
2018-06-27T05:45:25.937Z,17.0
2018-06-27T05:46:26.613Z,17.1
2018-06-27T05:47:27.288Z,17.0
2018-06-27T05:48:27.966Z,17.1
2018-06-27T05:49:28.640Z,17.1
2018-06-27T05:50:29.316Z,17.1
2018-06-27T05:51:29.994Z,17.2
2018-06-27T05:52:30.666Z,17.2
2018-06-27T05:53:31.593Z,17.2
2018-06-27T05:54:32.270Z,17.2
2018-06-27T05:55:32.944Z,17.2
2018-06-27T05:56:33.619Z,17.2
2018-06-27T05:57:34.299Z,17.1
2018-06-27T05:58:35.056Z,17.3
2018-06-27T05:59:35.648Z,17.3
2018-06-27T06:00:36.324Z,17.3
2018-06-27T06:01:36.999Z,17.5
2018-06-27T06:02:37.680Z,17.4
2018-06-27T06:03:38.353Z,17.4
2018-06-27T06:04:39.028Z,17.5
2018-06-27T06:05:39.705Z,17.6
2018-06-27T06:06:40.384Z,17.6
2018-06-27T06:07:41.061Z,17.8
2018-06-27T06:08:41.738Z,17.7
2018-06-27T06:09:42.414Z,17.8
2018-06-27T06:10:43.094Z,18.0
2018-06-27T06:11:43.773Z,18.8
2018-06-27T06:12:44.452Z,20.0
2018-06-27T06:13:45.134Z,21.0
2018-06-27T06:14:45.813Z,22.1
2018-06-27T06:15:46.491Z,23.1
2018-06-27T06:16:47.172Z,24.1
2018-06-27T06:17:47.850Z,25.1
2018-06-27T06:18:48.531Z,26.1
2018-06-27T06:19:49.278Z,27.1
2018-06-27T06:20:49.894Z,27.9
2018-06-27T06:21:50.577Z,28.7
2018-06-27T06:22:51.259Z,29.4
2018-06-27T06:23:51.943Z,30.1
2018-06-27T06:24:52.627Z,30.7
2018-06-27T06:25:53.310Z,31.2
2018-06-27T06:26:53.995Z,31.7
2018-06-27T06:27:54.678Z,32.3
2018-06-27T06:28:55.364Z,32.9
2018-06-27T06:29:56.048Z,33.5
2018-06-27T06:30:56.735Z,33.7
2018-06-27T06:31:57.460Z,34.1
2018-06-27T06:32:58.147Z,34.3
2018-06-27T06:33:58.834Z,34.5
2018-06-27T06:34:59.520Z,34.8
2018-06-27T06:36:00.211Z,35.1
2018-06-27T06:37:00.896Z,35.3
2018-06-27T06:38:01.585Z,35.7
2018-06-27T06:39:02.324Z,36.0
2018-06-27T06:40:03.013Z,36.0
2018-06-27T06:41:03.704Z,36.2
2018-06-27T06:42:04.397Z,36.4
2018-06-27T06:43:05.082Z,36.6
2018-06-27T06:44:05.772Z,36.9
2018-06-27T06:45:06.462Z,37.1
2018-06-27T06:46:07.167Z,37.2
2018-06-27T06:47:07.837Z,37.4
2018-06-27T06:48:08.529Z,37.5
2018-06-27T06:49:09.219Z,37.5
2018-06-27T06:50:09.913Z,37.7
2018-06-27T06:51:10.637Z,37.8
2018-06-27T06:52:11.341Z,37.9
2018-06-27T06:53:12.016Z,37.8
2018-06-27T06:54:12.704Z,37.8
2018-06-27T06:55:13.395Z,37.9
2018-06-27T06:56:14.083Z,38.0
2018-06-27T06:57:14.774Z,38.0
2018-06-27T06:58:15.501Z,38.1
2018-06-27T06:59:16.192Z,38.1
2018-06-27T07:00:16.881Z,37.4
2018-06-27T07:01:17.570Z,37.1
2018-06-27T07:02:18.260Z,37.4
2018-06-27T07:03:18.950Z,37.4
2018-06-27T07:04:19.640Z,37.5
2018-06-27T07:05:20.329Z,36.9
2018-06-27T07:06:21.020Z,36.0
2018-06-27T07:07:21.749Z,35.3
2018-06-27T07:08:22.477Z,34.9
2018-06-27T07:09:23.166Z,35.4
2018-06-27T07:10:23.856Z,35.5
2018-06-27T07:11:24.654Z,34.8
2018-06-27T07:12:25.235Z,34.6
2018-06-27T07:13:25.925Z,34.4
2018-06-27T07:14:26.613Z,34.6
2018-06-27T07:15:27.302Z,34.9
2018-06-27T07:16:27.990Z,35.3
2018-06-27T07:17:28.679Z,35.0
2018-06-27T07:18:29.370Z,35.2
2018-06-27T07:19:30.057Z,34.8
2018-06-27T07:20:30.746Z,34.4
2018-06-27T07:21:31.437Z,34.5
2018-06-27T07:22:32.128Z,35.0
2018-06-27T07:23:32.819Z,35.3
2018-06-27T07:24:33.510Z,35.8
2018-06-27T07:25:34.240Z,36.1
2018-06-27T07:26:34.929Z,36.6
2018-06-27T07:27:35.660Z,36.8
2018-06-27T07:28:36.433Z,36.9
2018-06-27T07:29:37.042Z,37.3
2018-06-27T07:30:37.775Z,37.6
2018-06-27T07:31:38.503Z,38.0
2018-06-27T07:32:39.192Z,38.2
2018-06-27T07:33:39.882Z,38.5
2018-06-27T07:34:40.573Z,38.7
2018-06-27T07:35:41.263Z,38.8
2018-06-27T07:36:41.953Z,39.0
2018-06-27T07:37:42.647Z,39.0
2018-06-27T07:38:43.335Z,39.2
2018-06-27T07:39:44.024Z,39.5
2018-06-27T07:40:44.717Z,39.7
2018-06-27T07:41:45.410Z,39.7
2018-06-27T07:42:46.137Z,39.7
2018-06-27T07:43:46.828Z,39.8
2018-06-27T07:44:47.518Z,39.7
2018-06-27T07:45:48.207Z,39.8
2018-06-27T07:46:48.899Z,40.1
2018-06-27T07:47:49.588Z,40.5
2018-06-27T07:48:50.278Z,40.6
2018-06-27T07:49:51.027Z,40.8
2018-06-27T07:50:51.714Z,41.0
2018-06-27T07:51:52.429Z,41.1
2018-06-27T07:52:53.120Z,40.3
2018-06-27T07:53:53.810Z,40.3
2018-06-27T07:54:54.501Z,40.3
2018-06-27T07:55:55.190Z,40.5
2018-06-27T07:56:55.879Z,40.3
2018-06-27T07:57:56.568Z,40.3
2018-06-27T07:58:57.258Z,40.5
2018-06-27T07:59:57.947Z,40.7
2018-06-27T08:00:58.637Z,40.7
2018-06-27T08:01:59.328Z,40.8
2018-06-27T08:03:00.024Z,41.0
2018-06-27T08:04:00.703Z,41.2
2018-06-27T08:05:01.396Z,41.4
2018-06-27T08:06:02.086Z,41.3
2018-06-27T08:07:02.770Z,41.3
2018-06-27T08:08:03.461Z,41.1
2018-06-27T08:09:04.149Z,40.8
2018-06-27T08:10:04.929Z,40.7
2018-06-27T08:11:05.621Z,40.5
2018-06-27T08:12:06.308Z,39.7
2018-06-27T08:13:06.997Z,39.7
2018-06-27T08:14:07.685Z,39.6
2018-06-27T08:15:08.373Z,39.2
2018-06-27T08:16:09.062Z,38.6
2018-06-27T08:17:09.749Z,38.6
2018-06-27T08:18:10.440Z,38.6
2018-06-27T08:19:11.128Z,38.4
2018-06-27T08:20:11.817Z,38.0
2018-06-27T08:21:12.506Z,37.8
2018-06-27T08:22:13.194Z,37.7
2018-06-27T08:23:13.882Z,37.2
2018-06-27T08:24:14.573Z,36.5
2018-06-27T08:25:15.308Z,36.1
2018-06-27T08:26:16.127Z,36.3
2018-06-27T08:27:16.685Z,36.6
2018-06-27T08:28:17.374Z,37.1
2018-06-27T08:29:18.064Z,37.5
2018-06-27T08:30:18.751Z,37.7
2018-06-27T08:31:19.438Z,38.1
2018-06-27T08:32:20.127Z,38.4
2018-06-27T08:33:20.856Z,38.6
2018-06-27T08:34:21.547Z,39.0
2018-06-27T08:35:22.233Z,39.2
2018-06-27T08:36:22.920Z,38.8
2018-06-27T08:37:23.608Z,38.9
2018-06-27T08:38:24.336Z,38.8
2018-06-27T08:39:25.067Z,38.7
2018-06-27T08:40:25.752Z,38.6
2018-06-27T08:41:26.440Z,38.6
2018-06-27T08:42:27.174Z,38.1
2018-06-27T08:43:27.855Z,38.4
2018-06-27T08:44:28.591Z,38.6
2018-06-27T08:45:29.231Z,39.0
2018-06-27T08:46:29.921Z,39.1
2018-06-27T08:47:30.647Z,39.3
2018-06-27T08:48:31.334Z,39.5
2018-06-27T08:49:32.022Z,39.7
2018-06-27T08:50:32.711Z,40.0
2018-06-27T08:51:33.397Z,40.2
2018-06-27T08:52:34.084Z,40.4
2018-06-27T08:53:34.774Z,40.5
2018-06-27T08:54:35.461Z,40.0
2018-06-27T08:55:36.148Z,39.2
2018-06-27T08:56:36.834Z,38.6
2018-06-27T08:57:37.523Z,38.1
2018-06-27T08:58:38.241Z,37.5
2018-06-27T08:59:38.899Z,36.9
2018-06-27T09:00:39.591Z,36.5
2018-06-27T09:01:40.279Z,36.7
2018-06-27T09:02:40.969Z,36.7
2018-06-27T09:03:41.656Z,36.3
2018-06-27T09:04:42.346Z,36.2
2018-06-27T09:05:43.036Z,36.4
2018-06-27T09:06:43.725Z,36.4
2018-06-27T09:07:44.469Z,36.2
2018-06-27T09:08:45.104Z,36.3
2018-06-27T09:09:45.792Z,36.7
2018-06-27T09:10:46.494Z,37.0
2018-06-27T09:11:47.182Z,36.6
2018-06-27T09:12:47.869Z,36.7
2018-06-27T09:13:48.558Z,36.4
2018-06-27T09:14:49.245Z,36.0
2018-06-27T09:15:49.933Z,35.7
2018-06-27T09:16:50.620Z,35.4
2018-06-27T09:17:51.310Z,34.9
2018-06-27T09:18:52.000Z,34.4
2018-06-27T09:19:52.688Z,33.9
2018-06-27T09:20:53.417Z,33.3
2018-06-27T09:21:54.108Z,32.9
2018-06-27T09:22:54.798Z,32.6
2018-06-27T09:23:55.483Z,32.2
2018-06-27T09:24:56.174Z,32.1
2018-06-27T09:25:56.859Z,31.7
2018-06-27T09:26:57.545Z,31.3
2018-06-27T09:27:58.239Z,31.0
2018-06-27T09:28:58.921Z,30.9
2018-06-27T09:29:59.609Z,30.6
2018-06-27T09:31:00.295Z,30.3
2018-06-27T09:32:00.981Z,30.0
2018-06-27T09:33:01.670Z,29.8
2018-06-27T09:34:02.400Z,29.5
2018-06-27T09:35:03.043Z,29.4
2018-06-27T09:36:03.769Z,29.3
2018-06-27T09:37:04.457Z,29.2
2018-06-27T09:38:05.143Z,29.0
2018-06-27T09:39:05.830Z,29.0
2018-06-27T09:40:06.560Z,28.8
2018-06-27T09:41:07.285Z,28.7
2018-06-27T09:42:07.974Z,28.5
2018-06-27T09:43:08.656Z,28.4
2018-06-27T09:44:09.341Z,28.2
2018-06-27T09:45:10.029Z,28.2
2018-06-27T09:46:10.716Z,28.1
2018-06-27T09:47:11.464Z,28.1
2018-06-27T09:48:12.084Z,28.1
2018-06-27T09:49:12.771Z,28.0
2018-06-27T09:50:13.460Z,27.9
2018-06-27T09:51:14.141Z,27.9
2018-06-27T09:52:14.827Z,28.1
2018-06-27T09:53:15.513Z,28.3
2018-06-27T09:54:16.199Z,28.6
2018-06-27T09:55:16.882Z,28.9
2018-06-27T09:56:17.572Z,29.3
2018-06-27T09:57:18.255Z,29.6
2018-06-27T09:58:18.938Z,29.9
2018-06-27T09:59:19.623Z,30.1
2018-06-27T10:00:20.309Z,30.5
2018-06-27T10:01:20.997Z,30.4
2018-06-27T10:02:21.680Z,30.3
2018-06-27T10:03:22.365Z,30.2
2018-06-27T10:04:23.052Z,30.4
2018-06-27T10:05:23.739Z,30.5
2018-06-27T10:06:24.422Z,30.5
2018-06-27T10:07:25.107Z,30.5
2018-06-27T10:08:25.794Z,30.2
2018-06-27T10:09:26.479Z,30.1
2018-06-27T10:10:27.167Z,29.8
2018-06-27T10:11:27.944Z,29.8
2018-06-27T10:12:28.629Z,29.6
2018-06-27T10:13:29.314Z,29.5
2018-06-27T10:14:30.005Z,29.3
2018-06-27T10:15:30.726Z,29.0
2018-06-27T10:16:31.412Z,29.0
2018-06-27T10:17:32.096Z,29.0
2018-06-27T10:18:32.782Z,29.1
2018-06-27T10:19:33.468Z,29.2
2018-06-27T10:20:34.153Z,29.3
2018-06-27T10:21:34.837Z,29.5
2018-06-27T10:22:35.543Z,29.6
2018-06-27T10:23:36.208Z,29.8
2018-06-27T10:24:36.897Z,30.2
2018-06-27T10:25:37.577Z,30.3
2018-06-27T10:26:38.314Z,30.4
2018-06-27T10:27:38.999Z,30.6
2018-06-27T10:28:39.683Z,30.7
2018-06-27T10:29:40.368Z,30.7
2018-06-27T10:30:41.054Z,30.8
2018-06-27T10:31:41.739Z,30.9
2018-06-27T10:32:42.424Z,31.0
2018-06-27T10:33:43.111Z,31.0
2018-06-27T10:34:43.796Z,31.0
2018-06-27T10:35:44.540Z,30.8
2018-06-27T10:36:45.167Z,30.8
2018-06-27T10:37:45.854Z,30.6
2018-06-27T10:38:46.539Z,30.4
2018-06-27T10:39:47.228Z,30.2
2018-06-27T10:40:47.951Z,30.0
2018-06-27T10:41:48.688Z,29.8
2018-06-27T10:42:49.373Z,29.4
2018-06-27T10:43:50.058Z,29.1
2018-06-27T10:44:50.745Z,28.8
2018-06-27T10:45:51.428Z,28.6
2018-06-27T10:46:52.114Z,28.6
2018-06-27T10:47:52.799Z,28.5
2018-06-27T10:48:53.484Z,28.3
2018-06-27T10:49:54.168Z,28.4
2018-06-27T10:50:54.854Z,28.4
2018-06-27T10:51:55.537Z,28.5
2018-06-27T10:52:56.223Z,28.3
2018-06-27T10:53:56.908Z,28.3
2018-06-27T10:54:57.631Z,28.1
2018-06-27T10:55:58.315Z,27.9
2018-06-27T10:56:59.001Z,27.9
2018-06-27T10:57:59.690Z,27.8
2018-06-27T10:59:00.375Z,27.8
2018-06-27T11:00:01.096Z,27.8
2018-06-27T11:01:01.831Z,27.7
2018-06-27T11:02:02.556Z,27.7
2018-06-27T11:03:03.240Z,27.6
2018-06-27T11:04:03.927Z,27.6
2018-06-27T11:05:04.613Z,27.6
2018-06-27T11:06:05.336Z,27.5
2018-06-27T11:07:06.060Z,27.3
2018-06-27T11:08:06.783Z,27.4
2018-06-27T11:09:07.469Z,27.4
2018-06-27T11:10:08.153Z,27.5
2018-06-27T11:11:08.879Z,27.5
2018-06-27T11:12:09.564Z,27.5
2018-06-27T11:13:10.250Z,27.6
2018-06-27T11:14:10.940Z,27.5
2018-06-27T11:15:11.619Z,27.4
2018-06-27T11:16:12.304Z,27.5
2018-06-27T11:17:12.989Z,27.7
2018-06-27T11:18:13.672Z,27.9
2018-06-27T11:19:14.354Z,27.9
2018-06-27T11:20:15.065Z,28.0
2018-06-27T11:21:15.727Z,27.9
2018-06-27T11:22:16.408Z,27.9
2018-06-27T11:23:17.136Z,27.7
2018-06-27T11:24:17.818Z,27.6
2018-06-27T11:25:18.501Z,27.6
2018-06-27T11:26:19.186Z,27.7
2018-06-27T11:27:19.922Z,27.7
2018-06-27T11:28:20.605Z,27.7
2018-06-27T11:29:21.290Z,27.5
2018-06-27T11:30:21.971Z,27.5
2018-06-27T11:31:22.659Z,27.4
2018-06-27T11:32:23.380Z,27.3
2018-06-27T11:33:24.064Z,27.2
2018-06-27T11:34:24.748Z,27.1
2018-06-27T11:35:25.433Z,27.0
2018-06-27T11:36:26.116Z,26.9
2018-06-27T11:37:26.800Z,26.8
2018-06-27T11:38:27.515Z,26.8
2018-06-27T11:39:28.171Z,26.8
2018-06-27T11:40:28.852Z,26.8
2018-06-27T11:41:29.536Z,26.9
2018-06-27T11:42:30.220Z,27.1
2018-06-27T11:43:30.905Z,27.2
2018-06-27T11:44:31.625Z,27.2
2018-06-27T11:45:32.275Z,27.3
2018-06-27T11:46:32.956Z,27.3
2018-06-27T11:47:33.645Z,27.3
2018-06-27T11:48:34.325Z,27.3
2018-06-27T11:49:35.008Z,27.4
2018-06-27T11:50:35.693Z,27.5
2018-06-27T11:51:36.376Z,27.5
2018-06-27T11:52:37.060Z,27.5
2018-06-27T11:53:37.745Z,27.6
2018-06-27T11:54:38.429Z,27.6
2018-06-27T11:55:39.113Z,27.6
2018-06-27T11:56:39.797Z,27.6
2018-06-27T11:57:40.481Z,27.6
2018-06-27T11:58:41.167Z,27.5
2018-06-27T11:59:41.890Z,27.5
2018-06-27T12:00:42.576Z,27.6
2018-06-27T12:01:43.261Z,27.6
2018-06-27T12:02:43.945Z,27.6
2018-06-27T12:03:44.630Z,27.5
2018-06-27T12:04:45.312Z,27.5
2018-06-27T12:05:45.998Z,27.4
2018-06-27T12:06:46.680Z,27.5
2018-06-27T12:07:47.364Z,27.5
2018-06-27T12:08:48.048Z,27.5
2018-06-27T12:09:48.736Z,27.5
2018-06-27T12:10:49.423Z,27.5
2018-06-27T12:11:50.109Z,27.5
2018-06-27T12:12:50.789Z,27.6
2018-06-27T12:13:51.472Z,27.5
2018-06-27T12:14:52.160Z,27.4
2018-06-27T12:15:52.879Z,27.3
2018-06-27T12:16:53.602Z,27.3
2018-06-27T12:17:54.247Z,27.3
2018-06-27T12:18:54.931Z,27.3
2018-06-27T12:19:55.617Z,27.1
2018-06-27T12:20:56.341Z,27.0
2018-06-27T12:21:57.023Z,27.1
2018-06-27T12:22:57.709Z,26.9
2018-06-27T12:23:58.460Z,27.0
2018-06-27T12:24:59.078Z,27.0
2018-06-27T12:25:59.761Z,26.8
2018-06-27T12:27:00.444Z,26.8
2018-06-27T12:28:01.128Z,26.7
2018-06-27T12:29:01.811Z,26.7
2018-06-27T12:30:02.495Z,26.7
2018-06-27T12:31:03.179Z,26.7
2018-06-27T12:32:03.862Z,26.8
2018-06-27T12:33:04.545Z,27.0
2018-06-27T12:34:05.228Z,27.1
2018-06-27T12:35:05.911Z,27.2
2018-06-27T12:36:06.595Z,27.3
2018-06-27T12:37:07.277Z,27.4
2018-06-27T12:38:07.961Z,27.5
2018-06-27T12:39:08.647Z,27.7
2018-06-27T12:40:09.330Z,27.7
2018-06-27T12:41:10.023Z,27.6
2018-06-27T12:42:10.738Z,27.6
2018-06-27T12:43:11.471Z,27.5
2018-06-27T12:44:12.153Z,27.6
2018-06-27T12:45:12.839Z,27.5
2018-06-27T12:46:13.519Z,27.5
2018-06-27T12:47:14.205Z,27.5
2018-06-27T12:48:14.888Z,27.5
2018-06-27T12:49:15.572Z,27.4
2018-06-27T12:50:16.291Z,27.5
2018-06-27T12:51:16.941Z,27.4
2018-06-27T12:52:17.625Z,27.6
2018-06-27T12:53:18.309Z,27.5
2018-06-27T12:54:18.992Z,27.5
2018-06-27T12:55:19.675Z,27.5
2018-06-27T12:56:20.360Z,27.7
2018-06-27T12:57:21.042Z,27.7
2018-06-27T12:58:21.727Z,27.6
2018-06-27T12:59:22.410Z,27.8
2018-06-27T13:00:23.120Z,27.8
2018-06-27T13:01:23.776Z,27.8
2018-06-27T13:02:24.461Z,27.9
2018-06-27T13:03:25.168Z,28.0
2018-06-27T13:04:25.861Z,28.0
2018-06-27T13:05:26.545Z,28.0
2018-06-27T13:06:27.232Z,28.0
2018-06-27T13:07:27.915Z,28.0
2018-06-27T13:08:28.599Z,28.0
2018-06-27T13:09:29.281Z,27.9
2018-06-27T13:10:29.966Z,27.7
2018-06-27T13:11:30.650Z,27.7
2018-06-27T13:12:31.336Z,27.8
2018-06-27T13:13:32.018Z,27.9
2018-06-27T13:14:32.705Z,27.9
2018-06-27T13:15:33.388Z,28.0
2018-06-27T13:16:34.073Z,28.0
2018-06-27T13:17:34.763Z,28.0
2018-06-27T13:18:35.443Z,27.9
2018-06-27T13:19:36.125Z,27.8
2018-06-27T13:20:36.808Z,27.7
2018-06-27T13:21:37.491Z,27.7
2018-06-27T13:22:38.178Z,27.5
2018-06-27T13:23:38.862Z,27.5
2018-06-27T13:24:39.545Z,27.6
2018-06-27T13:25:40.230Z,27.6
2018-06-27T13:26:40.912Z,27.7
2018-06-27T13:27:41.637Z,27.7